createdAt,value
2022-08-23T00:02:23.217Z,41.22
2022-08-23T00:05:07.416Z,41.22
2022-08-23T00:07:44.156Z,41.30
2022-08-23T00:10:15.882Z,41.21
2022-08-23T00:12:46.467Z,41.67
2022-08-23T00:15:17.125Z,41.28
2022-08-23T00:17:46.631Z,41.47
2022-08-23T00:20:17.464Z,41.51
2022-08-23T00:22:46.439Z,41.52
2022-08-23T00:25:15.711Z,41.35
2022-08-23T00:27:45.183Z,42.18
2022-08-23T00:30:15.758Z,42.47
2022-08-23T00:32:45.693Z,41.92
2022-08-23T00:35:20.885Z,42.17
2022-08-23T00:38:30.383Z,41.88
2022-08-23T00:40:53.254Z,42.43
2022-08-23T00:43:49.648Z,42.04
2022-08-23T00:46:43.407Z,41.78
2022-08-23T00:49:16.628Z,42.33
2022-08-23T00:51:57.757Z,43.03
2022-08-23T00:54:29.426Z,42.92
2022-08-23T00:57:02.987Z,42.77
2022-08-23T00:59:31.511Z,42.60
2022-08-23T01:02:01.042Z,42.91
2022-08-23T01:04:32.909Z,42.95
2022-08-23T01:07:35.345Z,42.97
2022-08-23T01:10:19.235Z,43.42
2022-08-23T01:12:57.355Z,43.13
2022-08-23T01:15:33.207Z,43.81
2022-08-23T01:18:07.230Z,42.97
2022-08-23T01:20:48.582Z,43.06
2022-08-23T01:37:46.389Z,45.26
2022-08-23T01:40:14.722Z,45.20
2022-08-23T01:42:44.159Z,44.78
2022-08-23T01:45:14.864Z,45.61
2022-08-23T01:47:44.031Z,45.07
2022-08-23T01:50:13.095Z,45.21
2022-08-23T01:52:47.213Z,45.23
2022-08-23T01:55:17.357Z,45.02
2022-08-23T01:57:48.309Z,45.31
2022-08-23T02:00:21.011Z,45.51
2022-08-23T02:02:48.713Z,45.88
2022-08-23T02:05:18.975Z,45.17
2022-08-23T02:07:48.518Z,45.63
2022-08-23T02:10:17.301Z,45.97
2022-08-23T02:12:47.211Z,45.51
2022-08-23T02:15:18.282Z,45.92
2022-08-23T02:17:46.856Z,45.82
2022-08-23T02:20:15.034Z,46.00
2022-08-23T02:22:46.963Z,45.78
2022-08-23T02:25:15.953Z,45.76
2022-08-23T02:27:44.374Z,46.48
2022-08-23T02:30:13.933Z,46.69
2022-08-23T02:32:42.666Z,45.92
2022-08-23T02:35:12.986Z,46.19
2022-08-23T02:37:41.759Z,46.48
2022-08-23T02:40:13.645Z,46.28
2022-08-23T02:42:42.692Z,46.48
2022-08-23T02:45:10.936Z,47.06
2022-08-23T02:47:40.151Z,46.84
2022-08-23T02:50:09.305Z,47.01
2022-08-23T02:52:38.824Z,47.00
2022-08-23T02:55:07.880Z,47.09
2022-08-23T02:57:36.836Z,46.41
2022-08-23T03:00:09.333Z,47.13
2022-08-23T03:02:38.886Z,46.38
2022-08-23T03:05:12.418Z,46.66
2022-08-23T03:07:43.638Z,47.76
2022-08-23T03:10:13.484Z,46.90
2022-08-23T03:12:41.715Z,46.56
2022-08-23T03:15:11.833Z,46.57
2022-08-23T03:17:40.681Z,46.80
2022-08-23T03:20:12.261Z,46.70
2022-08-23T03:22:41.177Z,46.92
2022-08-23T03:25:18.101Z,47.05
2022-08-23T03:27:46.745Z,46.94
2022-08-23T03:30:19.230Z,46.79
2022-08-23T03:32:49.301Z,46.85
2022-08-23T03:35:18.049Z,46.82
2022-08-23T03:37:46.146Z,47.06
2022-08-23T03:40:14.832Z,45.75
2022-08-23T03:42:45.680Z,46.32
2022-08-23T03:45:14.979Z,45.13
2022-08-23T03:47:44.521Z,45.69
2022-08-23T03:50:12.900Z,46.77
2022-08-23T03:52:41.792Z,47.08
2022-08-23T03:55:10.979Z,45.95
2022-08-23T03:57:40.085Z,46.04
2022-08-23T04:00:14.539Z,46.73
2022-08-23T04:02:57.942Z,45.49
2022-08-23T04:05:27.216Z,46.58
2022-08-23T04:07:56.187Z,46.19
2022-08-23T04:10:26.099Z,46.25
2022-08-23T04:12:55.168Z,45.49
2022-08-23T04:15:25.600Z,45.14
2022-08-23T04:17:53.753Z,45.52
2022-08-23T04:20:22.511Z,45.38
2022-08-23T04:22:56.099Z,45.04
2022-08-23T04:25:33.712Z,45.63
2022-08-23T04:28:04.129Z,45.80
2022-08-23T04:30:33.530Z,46.00
2022-08-23T04:33:02.933Z,45.91
2022-08-23T04:35:41.557Z,45.90
2022-08-23T04:38:24.344Z,46.28
2022-08-23T04:41:15.415Z,45.85
2022-08-23T04:43:47.394Z,45.43
2022-08-23T04:46:24.089Z,45.69
2022-08-23T04:48:58.472Z,45.00
2022-08-23T04:51:30.831Z,44.59
2022-08-23T04:53:59.094Z,44.81
2022-08-23T04:56:29.154Z,44.47
2022-08-23T04:58:58.223Z,44.22
2022-08-23T05:01:29.087Z,44.12
2022-08-23T05:03:59.742Z,44.42
2022-08-23T05:06:30.808Z,43.77
2022-08-23T05:09:02.104Z,43.25
2022-08-23T05:11:31.789Z,44.18
2022-08-23T05:13:59.842Z,43.26
2022-08-23T05:16:29.777Z,43.69
2022-08-23T05:19:00.908Z,42.95
2022-08-23T05:21:30.202Z,42.45
2022-08-23T05:23:58.948Z,42.37
2022-08-23T05:26:32.235Z,42.50
2022-08-23T05:29:01.488Z,42.26
2022-08-23T05:31:30.767Z,42.78
2022-08-23T05:34:00.094Z,42.71
2022-08-23T05:36:28.704Z,42.77
2022-08-23T05:38:58.790Z,42.35
2022-08-23T05:41:38.026Z,42.53
2022-08-23T05:44:07.876Z,42.38
2022-08-23T05:46:37.995Z,42.10
2022-08-23T05:49:07.112Z,41.57
2022-08-23T05:51:35.770Z,41.97
2022-08-23T05:54:09.232Z,41.10
2022-08-23T05:56:42.619Z,40.68
2022-08-23T05:59:17.388Z,40.80
2022-08-23T06:01:45.871Z,39.65
2022-08-23T06:04:20.378Z,39.69
2022-08-23T06:06:52.322Z,39.91
2022-08-23T06:09:21.411Z,39.97
2022-08-23T06:11:50.093Z,40.97
2022-08-23T06:14:22.771Z,39.71
2022-08-23T06:16:55.467Z,39.52
2022-08-23T06:19:25.988Z,39.05
2022-08-23T06:21:54.901Z,39.66
2022-08-23T06:24:23.452Z,39.72
2022-08-23T06:26:51.812Z,39.30
2022-08-23T06:29:21.831Z,38.38
2022-08-23T06:31:52.569Z,37.82
2022-08-23T06:34:35.566Z,37.95
2022-08-23T06:37:15.539Z,38.12
2022-08-23T06:39:44.889Z,38.63
2022-08-23T06:42:50.221Z,38.61
2022-08-23T06:45:06.707Z,38.48
2022-08-23T06:47:34.967Z,38.25
2022-08-23T06:50:04.509Z,37.25
2022-08-23T06:52:32.795Z,36.86
2022-08-23T06:55:03.061Z,36.91
2022-08-23T06:57:32.708Z,36.45
2022-08-23T07:00:01.737Z,34.97
2022-08-23T07:02:29.918Z,35.16
2022-08-23T07:04:59.023Z,34.85
2022-08-23T07:07:37.555Z,35.93
2022-08-23T07:10:15.703Z,35.75
2022-08-23T07:12:44.952Z,34.35
2022-08-23T07:15:13.666Z,34.99
2022-08-23T07:17:42.402Z,33.95
2022-08-23T07:20:11.514Z,34.88
2022-08-23T07:22:40.631Z,34.05
2022-08-23T07:25:09.921Z,33.63
2022-08-23T07:27:37.777Z,32.78
2022-08-23T07:30:09.983Z,33.81
2022-08-23T07:32:38.807Z,32.24
2022-08-23T07:35:10.703Z,32.13
2022-08-23T07:37:40.157Z,31.58
2022-08-23T07:40:11.076Z,32.38
2022-08-23T07:42:48.845Z,30.76
2022-08-23T07:45:22.987Z,29.94
2022-08-23T07:47:52.995Z,30.41
2022-08-23T07:50:22.889Z,30.09
2022-08-23T07:52:50.651Z,29.96
2022-08-23T07:55:18.936Z,31.29
2022-08-23T07:57:48.462Z,30.22
2022-08-23T08:00:17.052Z,29.86
2022-08-23T08:02:46.502Z,30.23
2022-08-23T08:05:17.332Z,29.00
2022-08-23T08:07:49.764Z,30.24
2022-08-23T08:10:18.901Z,29.85
2022-08-23T08:12:50.318Z,28.60
2022-08-23T08:15:20.692Z,28.39
2022-08-23T08:17:50.966Z,29.54
2022-08-23T08:20:20.897Z,28.35
2022-08-23T08:22:58.469Z,28.61
2022-08-23T08:25:31.171Z,28.23
2022-08-23T08:28:00.214Z,29.65
2022-08-23T08:30:29.631Z,29.43
2022-08-23T08:32:57.968Z,28.17
2022-08-23T08:35:26.867Z,28.62
2022-08-23T08:37:54.683Z,27.32
2022-08-23T08:40:40.471Z,28.39
2022-08-23T08:43:35.136Z,27.76
2022-08-23T08:46:38.049Z,27.36
2022-08-23T08:49:11.417Z,27.01
2022-08-23T08:52:11.211Z,25.20
2022-08-23T08:54:47.880Z,26.76
2022-08-23T08:57:25.320Z,26.41
2022-08-23T09:00:15.173Z,27.32
2022-08-23T09:02:45.490Z,27.33
2022-08-23T09:05:21.049Z,27.50
2022-08-23T09:08:26.169Z,26.34
2022-08-23T09:11:02.856Z,26.71
2022-08-23T09:13:54.374Z,27.33
2022-08-23T09:16:35.702Z,26.56
2022-08-23T09:19:05.935Z,26.01
2022-08-23T09:21:59.787Z,26.03
2022-08-23T09:24:32.427Z,26.90
2022-08-23T09:27:00.943Z,26.54
2022-08-23T09:29:51.316Z,26.78
2022-08-23T09:32:37.815Z,26.36
2022-08-23T09:35:26.579Z,26.41
2022-08-23T09:38:01.503Z,25.88
2022-08-23T09:40:54.244Z,25.73
2022-08-23T09:43:27.781Z,25.40
2022-08-23T09:46:02.772Z,23.96
2022-08-23T09:48:44.921Z,24.33
2022-08-23T09:51:42.899Z,25.31
2022-08-23T09:54:47.352Z,25.73
2022-08-23T09:57:25.486Z,24.83
2022-08-23T09:59:56.666Z,24.03
2022-08-23T10:02:35.550Z,24.37
2022-08-23T10:05:38.057Z,24.18
2022-08-23T10:08:10.750Z,24.32
2022-08-23T10:10:52.416Z,24.42
2022-08-23T10:13:31.197Z,24.01
2022-08-23T10:16:10.159Z,24.28
2022-08-23T10:18:57.211Z,23.73
2022-08-23T10:21:33.831Z,23.58
2022-08-23T10:24:24.461Z,23.62
2022-08-23T10:27:26.796Z,23.61
2022-08-23T10:30:06.573Z,23.17
2022-08-23T10:32:38.568Z,23.08
2022-08-23T10:36:22.668Z,23.72
2022-08-23T10:39:14.068Z,24.12
2022-08-23T10:41:56.596Z,22.38
2022-08-23T10:44:36.060Z,23.01
2022-08-23T10:47:39.581Z,23.03
2022-08-23T10:50:13.285Z,23.71
2022-08-23T10:52:49.440Z,24.05
2022-08-23T10:55:50.617Z,22.96
2022-08-23T10:58:24.075Z,23.83
2022-08-23T11:00:54.938Z,23.43
2022-08-23T11:03:37.691Z,23.64
2022-08-23T11:06:36.766Z,23.80
2022-08-23T11:09:25.882Z,24.00
2022-08-23T11:12:20.045Z,23.81
2022-08-23T11:14:58.203Z,24.07
2022-08-23T11:17:59.879Z,23.74
2022-08-23T11:20:56.036Z,23.71
2022-08-23T11:23:40.041Z,24.08
2022-08-23T11:26:12.361Z,24.48
2022-08-23T11:28:47.323Z,24.26
2022-08-23T11:31:43.280Z,24.24
2022-08-23T11:34:27.907Z,23.74
2022-08-23T11:37:27.461Z,23.78
2022-08-23T11:39:58.837Z,23.51
2022-08-23T11:42:43.001Z,23.57
2022-08-23T11:45:35.974Z,24.30
2022-08-23T11:48:37.532Z,24.33
2022-08-23T11:51:49.765Z,24.33
2022-08-23T11:54:50.312Z,24.22
2022-08-23T11:57:26.611Z,23.50
2022-08-23T12:00:30.991Z,24.30
2022-08-23T12:03:07.772Z,24.09
2022-08-23T12:06:12.524Z,24.10
2022-08-23T12:09:01.726Z,24.33
2022-08-23T12:12:00.026Z,23.77
2022-08-23T12:14:50.491Z,23.24
2022-08-23T12:17:28.664Z,22.16
2022-08-23T12:20:06.989Z,21.68
2022-08-23T12:22:59.883Z,22.08
2022-08-23T12:25:30.853Z,21.56
2022-08-23T12:28:35.770Z,21.44
2022-08-23T12:31:29.291Z,21.54
2022-08-23T12:34:20.907Z,20.91
2022-08-23T12:37:12.868Z,21.08
2022-08-23T12:39:51.592Z,20.64
2022-08-23T12:42:27.042Z,20.98
2022-08-23T12:45:15.261Z,20.48
2022-08-23T12:47:56.620Z,19.52
2022-08-23T12:50:42.064Z,18.98
2022-08-23T12:53:26.824Z,19.02
2022-08-23T12:56:06.027Z,19.14
2022-08-23T12:58:39.036Z,18.90
2022-08-23T13:01:19.918Z,18.51
2022-08-23T13:03:55.372Z,18.27
2022-08-23T13:06:30.181Z,19.07
2022-08-23T13:09:15.546Z,18.74
2022-08-23T13:11:46.439Z,18.54
2022-08-23T13:14:27.052Z,18.37
2022-08-23T13:17:22.893Z,18.29
2022-08-23T13:20:13.688Z,18.62
2022-08-23T13:23:05.821Z,19.34
2022-08-23T13:25:38.582Z,18.91
2022-08-23T13:28:27.236Z,19.03
2022-08-23T13:31:02.876Z,19.24
2022-08-23T13:33:32.689Z,19.03
2022-08-23T13:36:27.056Z,19.05
2022-08-23T13:38:56.489Z,19.28
2022-08-23T13:41:28.028Z,19.48
2022-08-23T13:43:58.182Z,18.48
2022-08-23T13:46:29.844Z,18.75
2022-08-23T13:49:22.375Z,19.24
2022-08-23T13:54:59.037Z,19.40
2022-08-23T13:57:30.199Z,19.66
2022-08-23T13:59:59.259Z,19.77
2022-08-23T14:02:29.703Z,21.13
2022-08-23T14:04:57.781Z,21.00
2022-08-23T14:07:26.620Z,21.40
2022-08-23T14:09:55.305Z,22.22
2022-08-23T14:12:28.183Z,22.11
2022-08-23T14:14:58.443Z,23.03
2022-08-23T14:17:31.002Z,23.20
2022-08-23T14:22:52.529Z,23.06
2022-08-23T14:25:20.873Z,23.77
2022-08-23T14:27:50.993Z,24.03
2022-08-23T14:30:29.681Z,24.20
2022-08-23T14:33:00.209Z,24.94
2022-08-23T14:35:29.561Z,24.38
2022-08-23T14:38:03.173Z,25.05
2022-08-23T14:40:37.406Z,25.13
2022-08-23T14:43:06.056Z,25.13
2022-08-23T14:45:39.035Z,25.33
2022-08-23T14:48:07.876Z,25.72
2022-08-23T14:50:37.544Z,26.55
2022-08-23T14:53:06.801Z,26.54
2022-08-23T14:55:34.909Z,27.02
2022-08-23T14:58:04.755Z,26.83
2022-08-23T15:00:33.806Z,26.67
2022-08-23T15:03:09.424Z,27.07
2022-08-23T15:05:38.891Z,27.71
2022-08-23T15:08:07.761Z,27.71
2022-08-23T15:12:55.334Z,27.71
2022-08-23T15:13:33.298Z,28.41
2022-08-23T15:16:07.589Z,27.86
2022-08-23T15:18:38.042Z,28.81
2022-08-23T15:21:10.219Z,28.91
2022-08-23T15:23:38.826Z,28.62
2022-08-23T15:26:08.899Z,27.45
2022-08-23T15:28:38.972Z,27.90
2022-08-23T15:31:06.916Z,28.19
2022-08-23T15:33:35.951Z,28.11
2022-08-23T15:36:04.444Z,28.38
2022-08-23T15:38:36.127Z,28.43
2022-08-23T15:41:05.625Z,29.59
2022-08-23T15:43:36.435Z,30.07
2022-08-23T15:46:09.585Z,29.69
2022-08-23T15:49:13.224Z,29.57
2022-08-23T15:51:42.161Z,29.81
2022-08-23T15:54:11.621Z,30.67
2022-08-23T15:56:50.457Z,30.38
2022-08-23T15:59:22.160Z,31.30
2022-08-23T16:01:54.088Z,30.91
2022-08-23T16:04:25.224Z,31.61
2022-08-23T16:06:54.342Z,32.12
2022-08-23T16:09:25.384Z,32.67
2022-08-23T16:12:00.078Z,33.00
2022-08-23T16:14:33.127Z,33.24
2022-08-23T16:17:04.549Z,33.51
2022-08-23T16:19:33.939Z,33.34
2022-08-23T16:22:03.830Z,33.65
2022-08-23T16:24:32.898Z,34.32
2022-08-23T16:27:01.843Z,34.20
2022-08-23T16:29:35.994Z,34.15
2022-08-23T16:32:05.040Z,34.52
2022-08-23T16:34:35.927Z,35.73
2022-08-23T16:37:09.748Z,35.23
2022-08-23T16:39:39.744Z,34.61
2022-08-23T16:42:07.808Z,35.07
2022-08-23T16:44:39.311Z,35.29
2022-08-23T16:47:12.748Z,35.96
2022-08-23T16:49:44.194Z,35.29
2022-08-23T16:52:16.087Z,36.37
2022-08-23T16:54:57.879Z,36.08
2022-08-23T16:57:32.814Z,35.78
2022-08-23T17:00:01.549Z,35.44
2022-08-23T17:02:35.167Z,36.15
2022-08-23T17:05:06.025Z,36.23
2022-08-23T17:07:38.802Z,36.46
2022-08-23T17:10:12.794Z,36.73
2022-08-23T17:12:57.319Z,37.01
2022-08-23T17:15:32.336Z,36.90
2022-08-23T17:18:02.769Z,36.05
2022-08-23T17:20:47.342Z,37.11
2022-08-23T17:23:17.439Z,36.96
2022-08-23T17:25:48.810Z,37.22
2022-08-23T17:28:20.791Z,36.57
2022-08-23T17:30:51.478Z,37.42
2022-08-23T17:33:29.490Z,37.43
2022-08-23T17:35:59.071Z,38.15
2022-08-23T17:38:28.446Z,37.29
2022-08-23T17:40:57.795Z,37.60
2022-08-23T17:43:27.587Z,37.26
2022-08-23T17:45:57.735Z,37.45
2022-08-23T17:48:28.892Z,38.17
2022-08-23T17:51:00.010Z,37.86
2022-08-23T17:53:29.138Z,37.68
2022-08-23T17:56:05.768Z,37.28
2022-08-23T17:58:38.809Z,38.01
2022-08-23T18:01:08.511Z,38.10
2022-08-23T18:03:39.296Z,38.46
2022-08-23T18:06:16.248Z,38.60
2022-08-23T18:08:51.832Z,38.57
2022-08-23T18:11:19.913Z,38.81
2022-08-23T18:13:48.966Z,38.91
2022-08-23T18:16:18.448Z,38.99
2022-08-23T18:18:46.832Z,39.10
2022-08-23T18:21:14.993Z,39.46
2022-08-23T18:23:43.820Z,39.69
2022-08-23T18:26:37.952Z,39.08
2022-08-23T18:29:14.833Z,39.52
2022-08-23T18:31:45.177Z,39.70
2022-08-23T18:34:15.099Z,39.18
2022-08-23T18:36:45.659Z,38.87
2022-08-23T18:39:15.022Z,39.51
2022-08-23T18:41:43.426Z,39.88
2022-08-23T18:44:12.772Z,39.89
2022-08-23T18:46:44.372Z,40.10
2022-08-23T18:49:12.919Z,39.71
2022-08-23T18:51:42.366Z,39.81
2022-08-23T18:54:13.890Z,39.86
2022-08-23T18:56:41.965Z,40.16
2022-08-23T18:59:11.316Z,39.69
2022-08-23T19:01:41.618Z,39.64
2022-08-23T19:04:11.816Z,39.89
2022-08-23T19:06:54.198Z,39.29
2022-08-23T19:09:26.043Z,39.33
2022-08-23T19:11:55.166Z,39.21
2022-08-23T19:14:25.526Z,39.84
2022-08-23T19:16:56.341Z,39.61
2022-08-23T19:19:25.269Z,38.63
2022-08-23T19:21:53.963Z,39.32
2022-08-23T19:24:23.889Z,39.51
2022-08-23T19:26:53.342Z,39.57
2022-08-23T19:29:22.794Z,39.63
2022-08-23T19:31:52.033Z,39.00
2022-08-23T19:34:22.497Z,39.53
2022-08-23T19:37:00.599Z,39.54
2022-08-23T19:39:31.945Z,39.39
2022-08-23T19:42:01.725Z,39.64
2022-08-23T19:44:33.308Z,39.36
2022-08-23T19:47:06.301Z,39.27
2022-08-23T19:49:35.414Z,38.64
2022-08-23T19:52:04.382Z,38.39
2022-08-23T19:54:33.572Z,38.27
2022-08-23T19:57:03.117Z,38.87
2022-08-23T19:59:37.292Z,39.03
2022-08-23T20:02:07.722Z,39.05
2022-08-23T20:04:37.306Z,38.57
2022-08-23T20:07:06.788Z,38.71
2022-08-23T20:09:36.750Z,38.77
2022-08-23T20:12:06.341Z,38.56
2022-08-23T20:14:39.628Z,38.75
2022-08-23T20:17:10.596Z,38.54
2022-08-23T20:19:41.944Z,38.48
2022-08-23T20:22:30.493Z,38.02
2022-08-23T20:24:59.826Z,37.74
2022-08-23T20:27:30.652Z,38.03
2022-08-23T20:30:06.580Z,37.94
2022-08-23T20:32:35.850Z,38.51
2022-08-23T20:35:08.258Z,38.75
2022-08-23T20:37:36.977Z,38.86
2022-08-23T20:40:08.005Z,38.35
2022-08-23T20:42:38.385Z,38.09
2022-08-23T20:45:08.725Z,38.04
2022-08-23T20:47:38.040Z,37.69
2022-08-23T20:50:08.314Z,37.68
2022-08-23T20:52:39.359Z,37.48
2022-08-23T20:55:10.974Z,37.37
2022-08-23T20:57:39.944Z,36.94
2022-08-23T21:00:10.526Z,37.95
2022-08-23T21:02:39.803Z,37.33
2022-08-23T21:05:08.113Z,37.60
2022-08-23T21:07:37.215Z,36.99
2022-08-23T21:10:05.421Z,37.08
2022-08-23T21:12:35.321Z,37.37
2022-08-23T21:15:08.942Z,37.65
2022-08-23T21:17:48.743Z,37.56
2022-08-23T21:20:21.665Z,37.49
2022-08-23T21:22:49.977Z,37.41
2022-08-23T21:25:19.068Z,37.25
2022-08-23T21:27:47.120Z,37.48
2022-08-23T21:30:16.669Z,37.53
2022-08-23T21:32:48.290Z,37.38
2022-08-23T21:35:21.464Z,37.67
2022-08-23T21:38:00.208Z,37.47
2022-08-23T21:40:35.236Z,37.12
2022-08-23T21:43:06.567Z,37.71
2022-08-23T21:45:39.604Z,37.86
2022-08-23T21:48:11.012Z,38.15
2022-08-23T21:50:42.391Z,44.20
2022-08-23T21:53:22.981Z,43.11
2022-08-23T21:55:51.322Z,42.31
2022-08-23T21:58:21.939Z,41.10
2022-08-23T22:00:50.980Z,42.52
2022-08-23T22:03:19.998Z,41.09
2022-08-23T22:05:51.191Z,42.15
2022-08-23T22:08:20.572Z,42.69
2022-08-23T22:10:58.254Z,41.83
2022-08-23T22:13:29.128Z,41.57
2022-08-23T22:15:58.216Z,39.75
2022-08-23T22:18:28.759Z,42.26
2022-08-23T22:23:44.892Z,42.17
2022-08-23T22:26:16.718Z,41.33
2022-08-23T22:28:45.083Z,41.92
2022-08-23T22:31:15.785Z,40.87
2022-08-23T22:33:45.739Z,42.53
2022-08-23T22:36:18.709Z,42.00
2022-08-23T22:38:47.771Z,41.35
2022-08-23T22:41:19.369Z,40.20
2022-08-23T22:43:48.125Z,40.90
2022-08-23T22:46:17.140Z,41.13
2022-08-23T22:48:46.305Z,42.77
2022-08-23T22:51:32.957Z,41.62
2022-08-23T22:54:04.000Z,40.77
2022-08-23T22:56:41.282Z,41.68
2022-08-23T22:59:10.796Z,41.46
2022-08-23T23:01:44.219Z,42.54
2022-08-23T23:04:16.765Z,41.59
2022-08-23T23:06:46.310Z,41.64
2022-08-23T23:09:18.317Z,42.06
2022-08-23T23:11:48.553Z,41.35
2022-08-23T23:14:22.171Z,41.97
2022-08-23T23:16:53.469Z,41.75
2022-08-23T23:19:41.353Z,41.18
2022-08-23T23:22:11.562Z,41.75
2022-08-23T23:24:40.629Z,42.13
2022-08-23T23:27:09.496Z,42.23
2022-08-23T23:29:38.934Z,42.90
2022-08-23T23:32:07.923Z,42.30
2022-08-23T23:34:38.128Z,42.26
2022-08-23T23:37:06.755Z,42.40
2022-08-23T23:39:37.358Z,41.16
2022-08-23T23:42:06.451Z,41.71
2022-08-23T23:44:34.960Z,42.02
2022-08-23T23:47:03.904Z,42.27
2022-08-23T23:49:33.838Z,42.74
2022-08-23T23:52:04.418Z,41.91
2022-08-23T23:54:35.783Z,42.26
2022-08-23T23:57:06.518Z,42.03
2022-08-23T23:59:35.652Z,41.26
